PWSweather.com
Personal Weather Stations
Station Observations
KTXDECATUR
Wildwood, Decatur, TX 76234

WildwoodDecatur, TX 76234

Lat: 33.2634, Lon: -97.6651

Elevation: 800

Station Type: Davis Vantage Pro 2

http://weather.wildwoodnaturist.com

Latest ConditionsUpdated 6:40:14 PM CDT Wednesday, Oct 22, 2014
Currently Today's Max Today's Min Today's Average
Temperature 75.7°F24.3°C 79.9°F26.6°C 55.2°F12.9°C 67.7°F19.8°C
Dew Point 61.8°F16.6°C 65.8°F18.8°C 53.3°F11.8°C 59.9°F15.5°C
Winds 0.9 mph SE1.4 kmh SE 11.9 mph S19.2 kmh S - 3.2 mph 5.1 kmh
Wind Gusts 5.3 mph8.5 kmh 16.0 mph25.7 kmh - -
Humidity 62% 96% 57% 78%
Pressure 30.06 in1017.9 mb 30.14 in1020.7 mb 30.05 in1017.6 mb -
Hour Temp Dew Point Humidity Winds Wind Gusts Pressure Precip Precip Rate Daily Precip Total
06:40 PM 75.7°F24.3°C 61.8°F16.6°C 62% 0.9 mph SE1.4 kmh SE 5.3 mph8.5 kmh 30.06 in1017.9 mb 0.00 in0.0 mm 0.00 in/hr0.0 mm/hr 0.00 in0.0 mm
06:30 PM 76.1°F24.5°C 62.1°F16.7°C 62% 5.8 mph SE9.3 kmh SE 8.6 mph13.8 kmh 30.06 in1017.9 mb 0.00 in0.0 mm 0.00 in/hr0.0 mm/hr 0.00 in0.0 mm
06:20 PM 76.5°F24.7°C 62.1°F16.7°C 61% 2.7 mph SE4.3 kmh SE 4.3 mph6.9 kmh 30.06 in1017.9 mb 0.00 in0.0 mm 0.00 in/hr0.0 mm/hr 0.00 in0.0 mm
06:10 PM 76.8°F24.9°C 62.3°F16.8°C 61% 0.9 mph SE1.4 kmh SE 5.3 mph8.5 kmh 30.06 in1017.9 mb 0.00 in0.0 mm 0.00 in/hr0.0 mm/hr 0.00 in0.0 mm
06:00 PM 77.0°F25.0°C 62.1°F16.7°C 60% 2.2 mph SE3.5 kmh SE 4.3 mph6.9 kmh 30.06 in1017.9 mb 0.00 in0.0 mm 0.00 in/hr0.0 mm/hr 0.00 in0.0 mm
05:50 PM 77.5°F25.3°C 62.5°F16.9°C 60% 5.8 mph SE9.3 kmh SE 11.8 mph19.0 kmh 30.05 in1017.6 mb 0.00 in0.0 mm 0.00 in/hr0.0 mm/hr 0.00 in0.0 mm
05:40 PM 78.1°F25.6°C 62.6°F17.0°C 59% 2.9 mph SE4.7 kmh SE 4.3 mph6.9 kmh 30.05 in1017.6 mb 0.00 in0.0 mm 0.00 in/hr0.0 mm/hr 0.00 in0.0 mm
05:30 PM 78.2°F25.7°C 62.7°F17.1°C 59% 5.2 mph E8.4 kmh E 7.5 mph12.1 kmh 30.05 in1017.6 mb 0.00 in0.0 mm 0.00 in/hr0.0 mm/hr 0.00 in0.0 mm
05:20 PM 79.0°F26.1°C 62.5°F16.9°C 57% 4.3 mph E6.9 kmh E 7.5 mph12.1 kmh 30.05 in1017.6 mb 0.00 in0.0 mm 0.00 in/hr0.0 mm/hr 0.00 in0.0 mm
05:10 PM 79.3°F26.3°C 63.2°F17.3°C 58% 6.4 mph SE10.3 kmh SE 9.6 mph15.4 kmh 30.05 in1017.6 mb 0.00 in0.0 mm 0.00 in/hr0.0 mm/hr 0.00 in0.0 mm
05:00 PM 79.1°F26.2°C 63.1°F17.3°C 58% 5.6 mph SE9.0 kmh SE 7.5 mph12.1 kmh 30.05 in1017.6 mb 0.00 in0.0 mm 0.00 in/hr0.0 mm/hr 0.00 in0.0 mm
04:50 PM 77.8°F25.4°C 62.3°F16.8°C 59% 5.3 mph SE8.5 kmh SE 5.3 mph8.5 kmh 30.05 in1017.6 mb 0.00 in0.0 mm 0.00 in/hr0.0 mm/hr 0.00 in0.0 mm
04:40 PM 77.8°F25.4°C 62.3°F16.8°C 59% 4.0 mph SE6.4 kmh SE 7.5 mph12.1 kmh 30.05 in1017.6 mb 0.00 in0.0 mm 0.00 in/hr0.0 mm/hr 0.00 in0.0 mm
04:30 PM 78.5°F25.8°C 62.5°F16.9°C 58% 5.2 mph SE8.4 kmh SE 7.5 mph12.1 kmh 30.05 in1017.6 mb 0.00 in0.0 mm 0.00 in/hr0.0 mm/hr 0.00 in0.0 mm
04:20 PM 79.9°F26.6°C 63.3°F17.4°C 57% 1.8 mph SE2.9 kmh SE 5.3 mph8.5 kmh 30.05 in1017.6 mb 0.00 in0.0 mm 0.00 in/hr0.0 mm/hr 0.00 in0.0 mm
04:10 PM 79.5°F26.4°C 63.9°F17.7°C 59% 6.5 mph SE10.5 kmh SE 10.7 mph17.2 kmh 30.06 in1017.9 mb 0.00 in0.0 mm 0.00 in/hr0.0 mm/hr 0.00 in0.0 mm
04:00 PM 78.1°F25.6°C 62.6°F17.0°C 59% 6.2 mph SE10.0 kmh SE 7.5 mph12.1 kmh 30.06 in1017.9 mb 0.00 in0.0 mm 0.00 in/hr0.0 mm/hr 0.00 in0.0 mm
03:50 PM 78.6°F25.9°C 63.6°F17.6°C 60% 5.8 mph E9.3 kmh E 7.5 mph12.1 kmh 30.06 in1017.9 mb 0.00 in0.0 mm 0.00 in/hr0.0 mm/hr 0.00 in0.0 mm
03:40 PM 78.5°F25.8°C 63.5°F17.5°C 60% 6.6 mph SE10.6 kmh SE 10.7 mph17.2 kmh 30.06 in1017.9 mb 0.00 in0.0 mm 0.00 in/hr0.0 mm/hr 0.00 in0.0 mm
03:30 PM 79.9°F26.6°C 63.3°F17.4°C 57% 7.0 mph SE11.3 kmh SE 7.5 mph12.1 kmh 30.06 in1017.9 mb 0.00 in0.0 mm 0.00 in/hr0.0 mm/hr 0.00 in0.0 mm
03:20 PM 78.5°F25.8°C 64.0°F17.8°C 61% 2.3 mph SE3.7 kmh SE 4.3 mph6.9 kmh 30.06 in1017.9 mb 0.00 in0.0 mm 0.00 in/hr0.0 mm/hr 0.00 in0.0 mm
03:10 PM 77.6°F25.3°C 63.1°F17.3°C 61% 5.6 mph SE9.0 kmh SE 9.6 mph15.4 kmh 30.07 in1018.3 mb 0.00 in0.0 mm 0.00 in/hr0.0 mm/hr 0.00 in0.0 mm
03:00 PM 78.4°F25.8°C 63.4°F17.4°C 60% 5.8 mph S9.3 kmh S 9.6 mph15.4 kmh 30.07 in1018.3 mb 0.00 in0.0 mm 0.00 in/hr0.0 mm/hr 0.00 in0.0 mm
02:50 PM 77.4°F25.2°C 63.8°F17.7°C 63% 3.7 mph SSE6.0 kmh SSE 10.7 mph17.2 kmh 30.07 in1018.3 mb 0.00 in0.0 mm 0.00 in/hr0.0 mm/hr 0.00 in0.0 mm
02:40 PM 77.6°F25.3°C 63.1°F17.3°C 61% 7.5 mph SSE12.1 kmh SSE 12.8 mph20.6 kmh 30.07 in1018.3 mb 0.00 in0.0 mm 0.00 in/hr0.0 mm/hr 0.00 in0.0 mm
02:30 PM 78.8°F26.0°C 63.7°F17.6°C 60% 9.0 mph SE14.5 kmh SE 13.9 mph22.4 kmh 30.07 in1018.3 mb 0.00 in0.0 mm 0.00 in/hr0.0 mm/hr 0.00 in0.0 mm
02:20 PM 77.4°F25.2°C 62.9°F17.2°C 61% 8.3 mph SE13.4 kmh SE 10.7 mph17.2 kmh 30.07 in1018.3 mb 0.00 in0.0 mm 0.00 in/hr0.0 mm/hr 0.00 in0.0 mm
02:10 PM 77.4°F25.2°C 63.3°F17.4°C 62% 7.9 mph SE12.7 kmh SE 10.7 mph17.2 kmh 30.08 in1018.6 mb 0.00 in0.0 mm 0.00 in/hr0.0 mm/hr 0.00 in0.0 mm
02:00 PM 77.5°F25.3°C 63.0°F17.2°C 61% 6.9 mph SE11.1 kmh SE 9.6 mph15.4 kmh 30.08 in1018.6 mb 0.00 in0.0 mm 0.00 in/hr0.0 mm/hr 0.00 in0.0 mm
01:50 PM 78.0°F25.6°C 63.0°F17.2°C 60% 8.3 mph SSE13.4 kmh SSE 11.8 mph19.0 kmh 30.09 in1019.0 mb 0.00 in0.0 mm 0.00 in/hr0.0 mm/hr 0.00 in0.0 mm
01:40 PM 78.1°F25.6°C 63.6°F17.6°C 61% 5.4 mph E8.7 kmh E 9.6 mph15.4 kmh 30.09 in1019.0 mb 0.00 in0.0 mm 0.00 in/hr0.0 mm/hr 0.00 in0.0 mm
01:30 PM 77.5°F25.3°C 63.9°F17.7°C 63% 6.0 mph SSE9.7 kmh SSE 10.7 mph17.2 kmh 30.09 in1019.0 mb 0.00 in0.0 mm 0.00 in/hr0.0 mm/hr 0.00 in0.0 mm
01:20 PM 76.7°F24.8°C 63.6°F17.6°C 64% 5.3 mph S8.5 kmh S 6.4 mph10.3 kmh 30.11 in1019.6 mb 0.00 in0.0 mm 0.00 in/hr0.0 mm/hr 0.00 in0.0 mm
01:10 PM 77.7°F25.4°C 64.1°F17.8°C 63% 6.5 mph SE10.5 kmh SE 10.7 mph17.2 kmh 30.11 in1019.6 mb 0.00 in0.0 mm 0.00 in/hr0.0 mm/hr 0.00 in0.0 mm
01:00 PM 77.7°F25.4°C 64.1°F17.8°C 63% 5.9 mph S9.5 kmh S 9.6 mph15.4 kmh 30.12 in1020.0 mb 0.00 in0.0 mm 0.00 in/hr0.0 mm/hr 0.00 in0.0 mm
12:50 PM 76.0°F24.4°C 63.8°F17.7°C 66% 6.5 mph S10.5 kmh S 10.7 mph17.2 kmh 30.12 in1020.0 mb 0.00 in0.0 mm 0.00 in/hr0.0 mm/hr 0.00 in0.0 mm
12:40 PM 76.2°F24.6°C 64.4°F18.0°C 67% 9.8 mph SSW15.8 kmh SSW 13.9 mph22.4 kmh 30.13 in1020.3 mb 0.00 in0.0 mm 0.00 in/hr0.0 mm/hr 0.00 in0.0 mm
12:30 PM 75.2°F24.0°C 63.9°F17.7°C 68% 5.4 mph SE8.7 kmh SE 6.4 mph10.3 kmh 30.13 in1020.3 mb 0.00 in0.0 mm 0.00 in/hr0.0 mm/hr 0.00 in0.0 mm
12:20 PM 75.4°F24.1°C 64.1°F17.8°C 68% 8.5 mph SE13.7 kmh SE 16.0 mph25.7 kmh 30.13 in1020.3 mb 0.00 in0.0 mm 0.00 in/hr0.0 mm/hr 0.00 in0.0 mm
12:10 PM 76.3°F24.6°C 65.4°F18.6°C 69% 8.2 mph SE13.2 kmh SE 13.9 mph22.4 kmh 30.13 in1020.3 mb 0.00 in0.0 mm 0.00 in/hr0.0 mm/hr 0.00 in0.0 mm
12:00 PM 76.2°F24.6°C 65.3°F18.5°C 69% 5.1 mph SE8.2 kmh SE 11.8 mph19.0 kmh 30.13 in1020.3 mb 0.00 in0.0 mm 0.00 in/hr0.0 mm/hr 0.00 in0.0 mm
11:50 AM 74.4°F23.6°C 64.8°F18.2°C 72% 6.9 mph S11.1 kmh S 10.7 mph17.2 kmh 30.13 in1020.3 mb 0.00 in0.0 mm 0.00 in/hr0.0 mm/hr 0.00 in0.0 mm
11:40 AM 74.9°F23.8°C 64.9°F18.3°C 71% 9.3 mph SSE15.0 kmh SSE 13.9 mph22.4 kmh 30.14 in1020.7 mb 0.00 in0.0 mm 0.00 in/hr0.0 mm/hr 0.00 in0.0 mm
11:30 AM 75.5°F24.2°C 65.8°F18.8°C 72% 11.9 mph S19.2 kmh S 16.0 mph25.7 kmh 30.14 in1020.7 mb 0.00 in0.0 mm 0.00 in/hr0.0 mm/hr 0.00 in0.0 mm
11:20 AM 73.8°F23.2°C 65.0°F18.3°C 74% 7.0 mph E11.3 kmh E 8.6 mph13.8 kmh 30.14 in1020.7 mb 0.00 in0.0 mm 0.00 in/hr0.0 mm/hr 0.00 in0.0 mm
11:10 AM 74.1°F23.4°C 64.9°F18.3°C 73% 8.1 mph SE13.0 kmh SE 9.6 mph15.4 kmh 30.14 in1020.7 mb 0.00 in0.0 mm 0.00 in/hr0.0 mm/hr 0.00 in0.0 mm
11:01 AM 73.7°F23.2°C 64.9°F18.3°C 74% 5.2 mph SSE8.4 kmh SSE 7.5 mph12.1 kmh 30.14 in1020.7 mb 0.00 in0.0 mm 0.00 in/hr0.0 mm/hr 0.00 in0.0 mm
10:51 AM 73.6°F23.1°C 64.8°F18.2°C 74% 9.1 mph S14.6 kmh S 15.0 mph24.1 kmh 30.14 in1020.7 mb 0.00 in0.0 mm 0.00 in/hr0.0 mm/hr 0.00 in0.0 mm
10:40 AM 72.5°F22.5°C 64.5°F18.1°C 76% 6.7 mph SSE10.8 kmh SSE 9.6 mph15.4 kmh 30.14 in1020.7 mb 0.00 in0.0 mm 0.00 in/hr0.0 mm/hr 0.00 in0.0 mm
10:30 AM 71.7°F22.1°C 64.5°F18.1°C 78% 2.4 mph S3.9 kmh S 2.1 mph3.4 kmh 30.14 in1020.7 mb 0.00 in0.0 mm 0.00 in/hr0.0 mm/hr 0.00 in0.0 mm
10:20 AM 71.1°F21.7°C 64.2°F17.9°C 79% 4.1 mph S6.6 kmh S 6.4 mph10.3 kmh 30.14 in1020.7 mb 0.00 in0.0 mm 0.00 in/hr0.0 mm/hr 0.00 in0.0 mm
10:10 AM 70.4°F21.3°C 64.3°F17.9°C 81% 3.1 mph SSE5.0 kmh SSE 5.3 mph8.5 kmh 30.14 in1020.7 mb 0.00 in0.0 mm 0.00 in/hr0.0 mm/hr 0.00 in0.0 mm
10:00 AM 69.5°F20.8°C 64.4°F18.0°C 84% 2.1 mph SSE3.4 kmh SSE 4.3 mph6.9 kmh 30.14 in1020.7 mb 0.00 in0.0 mm 0.00 in/hr0.0 mm/hr 0.00 in0.0 mm
09:50 AM 67.4°F19.7°C 64.0°F17.8°C 89% 3.6 mph SSE5.8 kmh SSE 7.5 mph12.1 kmh 30.14 in1020.7 mb 0.00 in0.0 mm 0.00 in/hr0.0 mm/hr 0.00 in0.0 mm
09:40 AM 65.3°F18.5°C 62.9°F17.2°C 92% 2.3 mph SE3.7 kmh SE 4.3 mph6.9 kmh 30.14 in1020.7 mb 0.00 in0.0 mm 0.00 in/hr0.0 mm/hr 0.00 in0.0 mm
09:30 AM 64.2°F17.9°C 61.8°F16.6°C 92% 2.2 mph SE3.5 kmh SE 2.1 mph3.4 kmh 30.13 in1020.3 mb 0.00 in0.0 mm 0.00 in/hr0.0 mm/hr 0.00 in0.0 mm
09:20 AM 63.0°F17.2°C 60.9°F16.1°C 93% 0.9 mph SE1.4 kmh SE 2.1 mph3.4 kmh 30.13 in1020.3 mb 0.00 in0.0 mm 0.00 in/hr0.0 mm/hr 0.00 in0.0 mm
09:10 AM 62.6°F17.0°C 60.9°F16.1°C 94% Calm Calm -- 30.13 in1020.3 mb 0.00 in0.0 mm 0.00 in/hr0.0 mm/hr 0.00 in0.0 mm
09:00 AM 62.2°F16.8°C 60.8°F16.0°C 95% 1.8 mph SE2.9 kmh SE 3.2 mph5.1 kmh 30.13 in1020.3 mb 0.00 in0.0 mm 0.00 in/hr0.0 mm/hr 0.00 in0.0 mm
08:50 AM 61.7°F16.5°C 60.5°F15.8°C 96% Calm Calm -- 30.13 in1020.3 mb 0.00 in0.0 mm 0.00 in/hr0.0 mm/hr 0.00 in0.0 mm
08:40 AM 60.7°F15.9°C 59.3°F15.2°C 95% 0.8 mph SE1.3 kmh SE 3.2 mph5.1 kmh 30.12 in1020.0 mb 0.00 in0.0 mm 0.00 in/hr0.0 mm/hr 0.00 in0.0 mm
08:30 AM 59.9°F15.5°C 58.7°F14.8°C 96% 1.1 mph SE1.8 kmh SE 3.2 mph5.1 kmh 30.12 in1020.0 mb 0.00 in0.0 mm 0.00 in/hr0.0 mm/hr 0.00 in0.0 mm
08:20 AM 58.3°F14.6°C 56.9°F13.8°C 95% Calm Calm -- 30.12 in1020.0 mb 0.00 in0.0 mm 0.00 in/hr0.0 mm/hr 0.00 in0.0 mm
08:10 AM 57.4°F14.1°C 55.9°F13.3°C 95% Calm Calm -- 30.12 in1020.0 mb 0.00 in0.0 mm 0.00 in/hr0.0 mm/hr 0.00 in0.0 mm
08:00 AM 56.8°F13.8°C 55.4°F13.0°C 95% Calm Calm -- 30.11 in1019.6 mb 0.00 in0.0 mm 0.00 in/hr0.0 mm/hr 0.00 in0.0 mm
07:50 AM 57.1°F13.9°C 55.4°F13.0°C 94% Calm Calm -- 30.11 in1019.6 mb 0.00 in0.0 mm 0.00 in/hr0.0 mm/hr 0.00 in0.0 mm
07:40 AM 57.8°F14.3°C 56.4°F13.6°C 95% Calm Calm -- 30.10 in1019.3 mb 0.00 in0.0 mm 0.00 in/hr0.0 mm/hr 0.00 in0.0 mm
07:30 AM 57.8°F14.3°C 56.4°F13.6°C 95% Calm Calm -- 30.10 in1019.3 mb 0.00 in0.0 mm 0.00 in/hr0.0 mm/hr 0.00 in0.0 mm
07:20 AM 57.7°F14.3°C 56.3°F13.5°C 95% Calm Calm -- 30.10 in1019.3 mb 0.00 in0.0 mm 0.00 in/hr0.0 mm/hr 0.00 in0.0 mm
07:10 AM 57.4°F14.1°C 56.0°F13.3°C 95% Calm Calm 1.1 mph1.8 kmh 30.09 in1019.0 mb 0.00 in0.0 mm 0.00 in/hr0.0 mm/hr 0.00 in0.0 mm
07:00 AM 57.3°F14.1°C 55.9°F13.3°C 95% Calm Calm -- 30.09 in1019.0 mb 0.00 in0.0 mm 0.00 in/hr0.0 mm/hr 0.00 in0.0 mm
06:50 AM 57.2°F14.0°C 55.8°F13.2°C 95% Calm Calm -- 30.09 in1019.0 mb 0.00 in0.0 mm 0.00 in/hr0.0 mm/hr 0.00 in0.0 mm
06:40 AM 56.8°F13.8°C 55.4°F13.0°C 95% Calm Calm -- 30.09 in1019.0 mb 0.00 in0.0 mm 0.00 in/hr0.0 mm/hr 0.00 in0.0 mm
06:30 AM 56.2°F13.4°C 54.5°F12.5°C 94% Calm Calm -- 30.08 in1018.6 mb 0.00 in0.0 mm 0.00 in/hr0.0 mm/hr 0.00 in0.0 mm
06:20 AM 55.8°F13.2°C 54.1°F12.3°C 94% Calm Calm -- 30.08 in1018.6 mb 0.00 in0.0 mm 0.00 in/hr0.0 mm/hr 0.00 in0.0 mm
06:10 AM 55.5°F13.1°C 53.8°F12.1°C 94% Calm Calm -- 30.08 in1018.6 mb 0.00 in0.0 mm 0.00 in/hr0.0 mm/hr 0.00 in0.0 mm
06:00 AM 55.2°F12.9°C 53.5°F11.9°C 94% Calm Calm -- 30.07 in1018.3 mb 0.00 in0.0 mm 0.00 in/hr0.0 mm/hr 0.00 in0.0 mm
05:50 AM 55.4°F13.0°C 53.7°F12.1°C 94% Calm Calm -- 30.07 in1018.3 mb 0.00 in0.0 mm 0.00 in/hr0.0 mm/hr 0.00 in0.0 mm
05:40 AM 55.6°F13.1°C 53.9°F12.2°C 94% Calm Calm -- 30.07 in1018.3 mb 0.00 in0.0 mm 0.00 in/hr0.0 mm/hr 0.00 in0.0 mm
05:30 AM 55.5°F13.1°C 53.8°F12.1°C 94% Calm Calm -- 30.07 in1018.3 mb 0.00 in0.0 mm 0.00 in/hr0.0 mm/hr 0.00 in0.0 mm
05:20 AM 55.4°F13.0°C 53.7°F12.1°C 94% Calm Calm -- 30.06 in1017.9 mb 0.00 in0.0 mm 0.00 in/hr0.0 mm/hr 0.00 in0.0 mm
05:10 AM 55.5°F13.1°C 53.8°F12.1°C 94% Calm Calm -- 30.06 in1017.9 mb 0.00 in0.0 mm 0.00 in/hr0.0 mm/hr 0.00 in0.0 mm
05:00 AM 55.8°F13.2°C 54.1°F12.3°C 94% 0.5 mph SE0.8 kmh SE 2.1 mph3.4 kmh 30.06 in1017.9 mb 0.00 in0.0 mm 0.00 in/hr0.0 mm/hr 0.00 in0.0 mm
04:50 AM 55.3°F12.9°C 53.3°F11.8°C 93% Calm Calm -- 30.06 in1017.9 mb 0.00 in0.0 mm 0.00 in/hr0.0 mm/hr 0.00 in0.0 mm
04:40 AM 55.2°F12.9°C 53.3°F11.8°C 93% Calm Calm -- 30.06 in1017.9 mb 0.00 in0.0 mm 0.00 in/hr0.0 mm/hr 0.00 in0.0 mm
04:30 AM 55.4°F13.0°C 53.5°F11.9°C 93% Calm Calm -- 30.06 in1017.9 mb 0.00 in0.0 mm 0.00 in/hr0.0 mm/hr 0.00 in0.0 mm
04:20 AM 55.9°F13.3°C 53.9°F12.2°C 93% Calm Calm -- 30.06 in1017.9 mb 0.00 in0.0 mm 0.00 in/hr0.0 mm/hr 0.00 in0.0 mm
04:10 AM 56.0°F13.3°C 54.0°F12.2°C 93% Calm Calm -- 30.06 in1017.9 mb 0.00 in0.0 mm 0.00 in/hr0.0 mm/hr 0.00 in0.0 mm
04:00 AM 56.1°F13.4°C 54.1°F12.3°C 93% Calm Calm -- 30.06 in1017.9 mb 0.00 in0.0 mm 0.00 in/hr0.0 mm/hr 0.00 in0.0 mm
03:51 AM 56.0°F13.3°C 53.7°F12.1°C 92% Calm Calm -- 30.06 in1017.9 mb 0.00 in0.0 mm 0.00 in/hr0.0 mm/hr 0.00 in0.0 mm
03:40 AM 55.9°F13.3°C 53.6°F12.0°C 92% Calm Calm -- 30.06 in1017.9 mb 0.00 in0.0 mm 0.00 in/hr0.0 mm/hr 0.00 in0.0 mm
03:31 AM 56.0°F13.3°C 53.7°F12.1°C 92% Calm Calm -- 30.06 in1017.9 mb 0.00 in0.0 mm 0.00 in/hr0.0 mm/hr 0.00 in0.0 mm
03:20 AM 56.0°F13.3°C 53.4°F11.9°C 91% Calm Calm -- 30.05 in1017.6 mb 0.00 in0.0 mm 0.00 in/hr0.0 mm/hr 0.00 in0.0 mm
03:10 AM 56.9°F13.8°C 54.3°F12.4°C 91% Calm Calm -- 30.05 in1017.6 mb 0.00 in0.0 mm 0.00 in/hr0.0 mm/hr 0.00 in0.0 mm
03:00 AM 57.5°F14.2°C 55.2°F12.9°C 92% Calm Calm -- 30.05 in1017.6 mb 0.00 in0.0 mm 0.00 in/hr0.0 mm/hr 0.00 in0.0 mm
02:50 AM 57.6°F14.2°C 55.3°F12.9°C 92% 2.4 mph SE3.9 kmh SE 3.2 mph5.1 kmh 30.05 in1017.6 mb 0.00 in0.0 mm 0.00 in/hr0.0 mm/hr 0.00 in0.0 mm
02:40 AM 57.4°F14.1°C 54.8°F12.7°C 91% Calm Calm -- 30.05 in1017.6 mb 0.00 in0.0 mm 0.00 in/hr0.0 mm/hr 0.00 in0.0 mm
02:30 AM 57.6°F14.2°C 54.7°F12.6°C 90% Calm Calm -- 30.05 in1017.6 mb 0.00 in0.0 mm 0.00 in/hr0.0 mm/hr 0.00 in0.0 mm
02:20 AM 57.9°F14.4°C 55.0°F12.8°C 90% Calm Calm -- 30.05 in1017.6 mb 0.00 in0.0 mm 0.00 in/hr0.0 mm/hr 0.00 in0.0 mm
02:16 AM 61.1°F16.2°C 55.9°F13.3°C 83% Calm Calm -- 30.05 in1017.6 mb 0.00 in0.0 mm 0.00 in/hr0.0 mm/hr 0.00 in0.0 mm
12:10 AM 61.6°F16.4°C 56.0°F13.3°C 82% Calm Calm -- 30.05 in1017.6 mb 0.00 in0.0 mm 0.00 in/hr0.0 mm/hr 0.00 in0.0 mm